Time;durP1;ratioP1;P1;durP2;ratioP2;P2;SDS_P1;SDS_P2;PMS_P1;PMS_P2;Temp;Humidity;BMP_temperature;BMP_pressure;BME280_temperature;BME280_humidity;BME280_pressure;Samples;Min_cycle;Max_cycle;Signal;HPM_P1;HPM_P2
2023/06/28 00:01:17;;;;;;;;;;;;;;;28.29;35.40;100289.41;5086525;28;1205;-21
2023/06/28 00:03:42;;;;;;;;;;;;;;;28.41;35.18;100287.00;5092080;28;1184;-20
2023/06/28 00:06:08;;;;;;;;;;;;;;;28.27;35.25;100286.06;5092181;28;1165;-20
2023/06/28 00:08:33;;;;;;;;;;;;;;;28.33;35.14;100282.56;5092585;28;1158;-20
2023/06/28 00:10:59;;;;;;;;;;;;;;;28.33;35.28;100285.28;5090421;28;1099;-20
2023/06/28 00:13:24;;;;;;;;;;;;;;;28.33;35.15;100279.88;5093305;28;1047;-20
2023/06/28 00:15:50;;;;;;;;;;;;;;;28.28;35.17;100283.16;5078937;28;1109;-20
2023/06/28 00:18:15;;;;;;;;;;;;;;;28.14;35.69;100284.16;5096875;28;1964;-20
2023/06/28 00:20:41;;;;;;;;;;;;;;;27.98;35.58;100288.84;5098206;28;1058;-21
2023/06/28 00:23:07;;;;;;;;;;;;;;;27.99;35.97;100285.13;5093001;28;1109;-20
2023/06/28 00:25:32;;;;;;;;;;;;;;;27.83;36.16;100284.41;5078431;28;1041;-20
2023/06/28 00:27:58;;;;;;;;;;;;;;;27.95;35.81;100283.84;5092018;28;1079;-20
2023/06/28 00:30:23;;;;;;;;;;;;;;;27.96;36.07;100288.22;5090228;28;1142;-20
2023/06/28 00:32:50;;;;;;;;;;;;;;;27.89;36.09;100290.91;5066811;28;1347;-21
2023/06/28 00:35:16;;;;;;;;;;;;;;;27.99;35.82;100282.44;5068746;28;1341;-20
2023/06/28 00:37:44;;;;;;;;;;;;;;;27.91;35.77;100278.00;5078857;28;1981;-20
2023/06/28 00:40:10;;;;;;;;;;;;;;;27.97;35.80;100288.03;5079827;28;1295;-21
2023/06/28 00:42:36;;;;;;;;;;;;;;;28.34;35.04;100278.84;5084885;28;1146;-21
2023/06/28 00:45:01;;;;;;;;;;;;;;;28.26;35.32;100306.84;5098258;28;1089;-20
2023/06/28 00:47:27;;;;;;;;;;;;;;;28.29;35.43;100282.13;5084505;28;1070;-20
2023/06/28 00:49:53;;;;;;;;;;;;;;;28.36;35.12;100276.78;5080053;28;1213;-20
2023/06/28 00:52:18;;;;;;;;;;;;;;;28.40;35.27;100279.91;5078697;28;1102;-20
2023/06/28 00:54:44;;;;;;;;;;;;;;;28.40;35.00;100278.03;5077787;28;1038;-20
2023/06/28 00:57:09;;;;;;;;;;;;;;;28.41;34.91;100268.88;5078030;28;1906;-21
2023/06/28 00:59:35;;;;;;;;;;;;;;;28.39;35.29;100270.97;5059999;28;1098;-20
2023/06/28 01:02:01;;;;;;;;;;;;;;;28.39;35.04;100262.00;5077118;28;1177;-20
2023/06/28 01:04:26;;;;;;;;;;;;;;;28.45;34.80;100263.88;5090069;28;1130;-21
2023/06/28 01:06:53;;;;;;;;;;;;;;;28.44;35.41;100270.34;5092313;28;1125;-20
2023/06/28 01:09:22;;;;;;;;;;;;;;;28.43;35.01;100266.81;5077736;28;1047;-20
2023/06/28 01:11:49;;;;;;;;;;;;;;;28.52;35.12;100263.91;5048562;28;1985;-21
2023/06/28 01:14:15;;;;;;;;;;;;;;;28.52;35.07;100261.19;5067225;28;1127;-20
2023/06/28 01:16:40;;;;;;;;;;;;;;;28.55;35.11;100269.75;5077586;28;1007;-21
2023/06/28 01:19:06;;;;;;;;;;;;;;;28.56;35.09;100263.28;5077624;28;1910;-21
2023/06/28 01:21:32;;;;;;;;;;;;;;;28.46;35.34;100262.88;5078013;28;1700;-20
2023/06/28 01:24:00;;;;;;;;;;;;;;;28.48;35.37;100258.91;5078859;28;902;-21
2023/06/28 01:26:25;;;;;;;;;;;;;;;28.50;34.78;100258.69;5079434;28;1161;-21
2023/06/28 01:28:51;;;;;;;;;;;;;;;28.39;35.46;100260.16;5066875;28;1162;-23
2023/06/28 01:31:17;;;;;;;;;;;;;;;28.34;35.49;100258.03;5089174;28;1098;-21
2023/06/28 01:33:42;;;;;;;;;;;;;;;28.47;35.07;100265.38;5071850;28;1131;-21
2023/06/28 01:36:08;;;;;;;;;;;;;;;28.38;35.25;100257.66;5091160;28;1066;-21
2023/06/28 01:38:34;;;;;;;;;;;;;;;28.42;35.01;100259.72;5071631;28;1906;-21
2023/06/28 01:41:00;;;;;;;;;;;;;;;28.24;35.31;100262.97;5079077;28;1126;-22
2023/06/28 01:43:25;;;;;;;;;;;;;;;28.39;35.41;100262.84;5096935;28;1046;-21
2023/06/28 01:45:51;;;;;;;;;;;;;;;28.40;35.31;100263.66;5059410;28;1194;-21
2023/06/28 01:48:17;;;;;;;;;;;;;;;28.36;34.97;100258.66;5089874;28;872;-21
2023/06/28 01:50:44;;;;;;;;;;;;;;;28.32;35.27;100257.38;5065975;28;920;-23
2023/06/28 01:53:10;;;;;;;;;;;;;;;28.42;35.28;100265.16;5078302;28;998;-21
2023/06/28 01:55:35;;;;;;;;;;;;;;;28.45;35.10;100264.72;5090460;28;1158;-21
2023/06/28 01:58:01;;;;;;;;;;;;;;;28.35;35.44;100259.72;5072143;28;1906;-21
2023/06/28 02:00:26;;;;;;;;;;;;;;;28.39;35.17;100265.56;5058193;28;894;-21
2023/06/28 02:02:53;;;;;;;;;;;;;;;28.46;35.45;100263.69;5089712;28;1347;-21
2023/06/28 02:05:20;;;;;;;;;;;;;;;28.52;34.99;100270.16;5066155;28;1333;-21
2023/06/28 02:07:45;;;;;;;;;;;;;;;28.43;35.20;100266.81;5083608;28;1130;-21
2023/06/28 02:10:11;;;;;;;;;;;;;;;28.48;35.10;100266.19;5082727;28;1202;-21
2023/06/28 02:12:36;;;;;;;;;;;;;;;28.33;35.62;100272.59;5077978;28;1135;-21
2023/06/28 02:15:05;;;;;;;;;;;;;;;28.49;35.24;100270.56;5082456;28;1098;-21
2023/06/28 02:17:31;;;;;;;;;;;;;;;28.53;35.28;100263.69;5065462;28;1961;-21
2023/06/28 02:19:59;;;;;;;;;;;;;;;28.36;35.25;100260.56;5089807;28;1212;-21
2023/06/28 02:22:25;;;;;;;;;;;;;;;28.43;35.50;100258.69;5058148;28;1190;-21
2023/06/28 02:24:51;;;;;;;;;;;;;;;28.39;35.29;100265.56;5061694;28;1596;-21
2023/06/28 02:27:17;;;;;;;;;;;;;;;28.29;35.67;100265.06;5089814;28;1115;-21
2023/06/28 02:29:45;;;;;;;;;;;;;;;28.32;35.78;100262.78;5083269;28;1038;-21
2023/06/28 02:32:12;;;;;;;;;;;;;;;28.27;35.45;100261.72;5078103;28;1225;-21
2023/06/28 02:34:37;;;;;;;;;;;;;;;28.34;35.65;100265.31;5077595;28;1215;-21
2023/06/28 02:37:03;;;;;;;;;;;;;;;28.35;35.26;100261.56;5068455;28;1969;-21
2023/06/28 02:39:28;;;;;;;;;;;;;;;28.32;35.40;100264.66;5088987;28;1146;-21
2023/06/28 02:41:54;;;;;;;;;;;;;;;28.25;35.25;100259.22;5075857;28;1094;-21
2023/06/28 02:44:19;;;;;;;;;;;;;;;28.25;35.62;100259.22;5076012;28;1067;-21
2023/06/28 02:46:46;;;;;;;;;;;;;;;28.16;35.74;100260.44;5071763;28;1371;-22
2023/06/28 02:49:12;;;;;;;;;;;;;;;28.22;35.29;100260.47;5088629;28;905;-21
2023/06/28 02:51:37;;;;;;;;;;;;;;;28.17;35.95;100259.41;5072033;28;1474;-21
2023/06/28 02:54:04;;;;;;;;;;;;;;;28.22;35.65;100255.06;5069863;28;1586;-22
2023/06/28 02:56:30;;;;;;;;;;;;;;;28.30;35.22;100254.03;5071823;28;1207;-22
2023/06/28 02:59:14;;;;;;;;;;;;;;;28.43;35.05;100263.25;5085663;28;1909;-21
2023/06/28 03:01:40;;;;;;;;;;;;;;;28.40;35.33;100261.81;5072190;28;1156;-21
2023/06/28 03:04:07;;;;;;;;;;;;;;;28.27;35.75;100259.88;5072364;28;1147;-21
2023/06/28 03:06:34;;;;;;;;;;;;;;;28.38;35.18;100261.16;5081779;28;1182;-24
2023/06/28 03:08:59;;;;;;;;;;;;;;;28.34;35.66;100259.91;5072163;28;1193;-21
2023/06/28 03:11:25;;;;;;;;;;;;;;;28.39;35.42;100264.72;5062145;28;1209;-21
2023/06/28 03:13:51;;;;;;;;;;;;;;;28.40;35.08;100260.97;5062295;28;1239;-21
2023/06/28 03:16:16;;;;;;;;;;;;;;;28.40;35.34;100258.25;5078970;28;1149;-21
2023/06/28 03:18:42;;;;;;;;;;;;;;;28.28;36.24;100255.28;5061821;28;1910;-21
2023/06/28 03:21:07;;;;;;;;;;;;;;;28.35;35.67;100258.88;5075135;28;1178;-21
2023/06/28 03:23:34;;;;;;;;;;;;;;;28.33;35.63;100256.38;5063627;28;1444;-21
2023/06/28 03:25:59;;;;;;;;;;;;;;;28.53;35.59;100260.19;5064994;28;1118;-21
2023/06/28 03:28:25;;;;;;;;;;;;;;;28.53;35.13;100266.41;5071639;28;1096;-21
2023/06/28 03:30:51;;;;;;;;;;;;;;;28.32;35.44;100261.94;5064437;28;1233;-22
2023/06/28 03:33:16;;;;;;;;;;;;;;;27.32;34.88;100256.63;5061714;28;1392;-22
2023/06/28 03:35:42;;;;;;;;;;;;;;;26.78;35.36;100261.53;5074860;28;1416;-23
2023/06/28 03:38:08;;;;;;;;;;;;;;;26.47;35.86;100263.53;5091641;28;1972;-22
2023/06/28 03:40:33;;;;;;;;;;;;;;;26.41;36.17;100261.56;5081046;28;1283;-23
2023/06/28 03:42:59;;;;;;;;;;;;;;;26.71;36.55;100257.94;5068881;28;1177;-22
2023/06/28 03:45:24;;;;;;;;;;;;;;;26.76;35.87;100248.22;5074215;28;1524;-22
2023/06/28 03:47:51;;;;;;;;;;;;;;;26.81;35.80;100250.34;5072857;28;1348;-22
2023/06/28 03:50:17;;;;;;;;;;;;;;;26.45;36.90;100252.09;5061993;28;1221;-21
2023/06/28 03:52:43;;;;;;;;;;;;;;;26.31;37.20;100259.13;5073511;28;1415;-22
2023/06/28 03:55:11;;;;;;;;;;;;;;;26.98;35.90;100253.63;5081028;28;1161;-19
2023/06/28 03:57:36;;;;;;;;;;;;;;;26.95;35.99;100262.13;5065381;28;2046;-20
2023/06/28 04:00:04;;;;;;;;;;;;;;;26.90;35.76;100260.00;5077836;28;1142;-20
2023/06/28 04:02:39;;;;;;;;;;;;;;;26.68;35.94;100259.16;5078658;28;1182;-20
2023/06/28 04:05:05;;;;;;;;;;;;;;;27.17;35.47;100250.47;5078516;28;1186;-22
2023/06/28 04:07:31;;;;;;;;;;;;;;;27.13;35.90;100258.13;5079009;28;1157;-21
2023/06/28 04:09:56;;;;;;;;;;;;;;;27.00;35.73;100261.53;5083191;28;1150;-21
2023/06/28 04:12:22;;;;;;;;;;;;;;;27.38;35.58;100255.00;5093376;28;1138;-20
2023/06/28 04:14:48;;;;;;;;;;;;;;;27.49;35.35;100264.44;5085715;28;1254;-21
2023/06/28 04:17:13;;;;;;;;;;;;;;;27.75;34.85;100254.84;5099077;28;1895;-20
2023/06/28 04:19:39;;;;;;;;;;;;;;;27.83;34.90;100259.25;5094781;28;1026;-20
2023/06/28 04:22:05;;;;;;;;;;;;;;;27.70;35.28;100266.25;5078964;28;1078;-20
2023/06/28 04:24:30;;;;;;;;;;;;;;;27.72;35.22;100266.06;5080539;28;1086;-22
2023/06/28 04:27:00;;;;;;;;;;;;;;;28.02;34.56;100260.41;5070500;28;1157;-22
2023/06/28 04:29:28;;;;;;;;;;;;;;;27.91;34.23;100260.97;5080506;28;1092;-21
2023/06/28 04:31:58;;;;;;;;;;;;;;;27.91;34.05;100264.47;5077082;28;1264;-21
2023/06/28 04:34:23;;;;;;;;;;;;;;;28.22;33.14;100262.34;5092230;28;1087;-20
2023/06/28 04:36:49;;;;;;;;;;;;;;;28.15;32.52;100258.75;5077815;28;1284;-22
2023/06/28 04:39:15;;;;;;;;;;;;;;;27.80;32.88;100267.75;5078014;28;1898;-21
2023/06/28 04:41:40;;;;;;;;;;;;;;;27.77;32.64;100266.31;5087102;28;1083;-21
2023/06/28 04:44:09;;;;;;;;;;;;;;;27.81;32.57;100264.03;5082784;28;1184;-21
2023/06/28 04:46:35;;;;;;;;;;;;;;;27.97;32.68;100262.84;5087688;28;1118;-21
2023/06/28 04:49:00;;;;;;;;;;;;;;;27.63;32.85;100268.88;5089255;28;1058;-20
2023/06/28 04:51:26;;;;;;;;;;;;;;;27.91;32.69;100271.78;5078039;28;1069;-20
2023/06/28 04:53:51;;;;;;;;;;;;;;;27.84;32.65;100275.25;5078596;28;1268;-20
2023/06/28 04:56:17;;;;;;;;;;;;;;;27.93;32.81;100265.13;5078198;28;1126;-21
2023/06/28 04:58:42;;;;;;;;;;;;;;;27.70;33.37;100273.53;5077070;28;1905;-21
2023/06/28 05:01:10;;;;;;;;;;;;;;;27.89;32.70;100273.84;5086490;28;1087;-22
2023/06/28 05:03:38;;;;;;;;;;;;;;;27.87;33.25;100271.34;5078829;28;1097;-21
2023/06/28 05:06:08;;;;;;;;;;;;;;;27.91;33.29;100271.78;5089675;28;1085;-22
2023/06/28 05:08:34;;;;;;;;;;;;;;;27.88;33.54;100278.41;5091898;28;1213;-22
2023/06/28 05:11:00;;;;;;;;;;;;;;;27.60;34.49;100271.16;5077966;28;1237;-23
2023/06/28 05:13:25;;;;;;;;;;;;;;;27.51;34.62;100274.00;5088061;28;1126;-23
2023/06/28 05:15:51;;;;;;;;;;;;;;;27.80;34.33;100275.88;5085245;28;1193;-22
2023/06/28 05:18:19;;;;;;;;;;;;;;;28.00;33.55;100278.69;5083347;28;1981;-22
2023/06/28 05:20:45;;;;;;;;;;;;;;;27.99;33.58;100277.81;5066377;28;1039;-22
2023/06/28 05:23:15;;;;;;;;;;;;;;;28.08;33.77;100283.06;5083634;28;1023;-22
2023/06/28 05:25:40;;;;;;;;;;;;;;;28.12;33.58;100281.66;5094672;28;1042;-22
2023/06/28 05:28:06;;;;;;;;;;;;;;;27.72;34.43;100277.72;5077533;28;1182;-22
2023/06/28 05:30:31;;;;;;;;;;;;;;;27.98;34.20;100280.75;5079033;28;1095;-22
2023/06/28 05:32:58;;;;;;;;;;;;;;;28.02;34.20;100278.47;5081015;28;1194;-22
2023/06/28 05:35:24;;;;;;;;;;;;;;;28.08;34.15;100281.22;5077473;28;949;-21
2023/06/28 05:37:50;;;;;;;;;;;;;;;28.19;34.49;100278.97;5088391;28;1909;-22
2023/06/28 05:40:15;;;;;;;;;;;;;;;28.10;34.95;100278.31;5083278;28;1086;-21
2023/06/28 05:42:40;;;;;;;;;;;;;;;28.06;34.87;100275.16;5076768;28;1149;-21
2023/06/28 05:45:07;;;;;;;;;;;;;;;28.19;34.08;100273.56;5076713;28;1126;-20
2023/06/28 05:47:33;;;;;;;;;;;;;;;28.09;34.09;100280.16;5077445;28;1087;-20
2023/06/28 05:49:58;;;;;;;;;;;;;;;27.98;33.45;100272.63;5090086;28;1069;-21
2023/06/28 05:52:24;;;;;;;;;;;;;;;28.15;33.17;100270.41;5075873;28;1123;-20
2023/06/28 05:54:49;;;;;;;;;;;;;;;28.21;33.50;100276.91;5076391;28;1175;-20
2023/06/28 05:57:16;;;;;;;;;;;;;;;28.31;33.62;100271.94;5083786;28;1906;-20
2023/06/28 05:59:41;;;;;;;;;;;;;;;28.27;34.28;100275.25;5083653;28;1130;-20
2023/06/28 06:02:07;;;;;;;;;;;;;;;28.25;34.57;100267.34;5064858;28;891;-21
2023/06/28 06:04:32;;;;;;;;;;;;;;;28.67;33.90;100266.44;5076689;28;1122;-20
2023/06/28 06:06:58;;;;;;;;;;;;;;;28.19;34.55;100260.88;5077205;28;1043;-20
2023/06/28 06:09:23;;;;;;;;;;;;;;;28.33;34.77;100263.66;5089821;28;1030;-20
2023/06/28 06:11:49;;;;;;;;;;;;;;;28.07;34.59;100259.78;5076446;28;1081;-21
2023/06/28 06:14:15;;;;;;;;;;;;;;;28.06;34.57;100258.94;5077447;28;926;-20
2023/06/28 06:16:41;;;;;;;;;;;;;;;28.06;34.59;100250.81;5076301;28;1182;-21
2023/06/28 06:19:06;;;;;;;;;;;;;;;28.27;34.21;100264.44;5076384;28;1944;-21
2023/06/28 06:21:32;;;;;;;;;;;;;;;28.22;33.93;100263.19;5090231;28;1047;-21
2023/06/28 06:23:59;;;;;;;;;;;;;;;28.14;34.86;100265.22;5076585;28;1110;-20
2023/06/28 06:26:25;;;;;;;;;;;;;;;28.13;34.08;100256.25;5084657;28;1059;-20
2023/06/28 06:28:50;;;;;;;;;;;;;;;28.21;34.18;100258.78;5076594;28;1125;-20
2023/06/28 06:31:16;;;;;;;;;;;;;;;28.13;34.40;100256.25;5082004;28;1070;-20
2023/06/28 06:33:41;;;;;;;;;;;;;;;28.30;34.20;100258.59;5096657;28;1077;-20
2023/06/28 06:36:07;;;;;;;;;;;;;;;28.29;34.47;100262.38;5077226;28;1082;-20
2023/06/28 06:38:33;;;;;;;;;;;;;;;28.22;35.09;100256.94;5078161;28;1970;-20
2023/06/28 06:40:58;;;;;;;;;;;;;;;28.24;35.06;100252.97;5081354;28;1150;-20
2023/06/28 06:43:23;;;;;;;;;;;;;;;28.17;34.06;100244.03;5084373;28;1184;-20
2023/06/28 06:45:49;;;;;;;;;;;;;;;28.22;34.36;100246.13;5075001;28;1134;-20
2023/06/28 06:48:14;;;;;;;;;;;;;;;28.48;34.98;100261.63;5076262;28;1170;-34
2023/06/28 06:50:40;;;;;;;;;;;;;;;28.51;34.89;100260.34;5090033;28;1293;-19
2023/06/28 06:53:06;;;;;;;;;;;;;;;28.41;35.53;100260.75;5089218;28;1098;-19
2023/06/28 06:55:32;;;;;;;;;;;;;;;28.55;34.40;100258.09;5087078;28;1092;-19
2023/06/28 06:57:57;;;;;;;;;;;;;;;28.30;35.79;100264.88;5076813;28;1981;-35
2023/06/28 07:00:23;;;;;;;;;;;;;;;28.29;36.32;100265.06;5075125;28;1042;-38
2023/06/28 07:02:48;;;;;;;;;;;;;;;28.53;36.13;100263.69;5084248;28;1170;-36
2023/06/28 07:05:15;;;;;;;;;;;;;;;28.65;36.02;100268.50;5075345;28;1127;-37
2023/06/28 07:07:41;;;;;;;;;;;;;;;28.43;36.86;100258.69;5075723;28;1143;-34
2023/06/28 07:10:07;;;;;;;;;;;;;;;28.63;36.98;100266.00;5094500;28;1187;-38
2023/06/28 07:12:34;;;;;;;;;;;;;;;28.81;35.76;100268.13;5095848;28;1055;-38
2023/06/28 07:14:59;;;;;;;;;;;;;;;28.84;35.70;100262.28;5070975;28;1297;-40
2023/06/28 07:17:25;;;;;;;;;;;;;;;28.84;34.21;100256.88;5079133;28;1975;-37
2023/06/28 07:19:50;;;;;;;;;;;;;;;28.84;35.77;100272.31;5075256;28;1039;-38
2023/06/28 07:22:16;;;;;;;;;;;;;;;28.89;35.85;100267.09;5077179;28;1270;-34
2023/06/28 07:24:41;;;;;;;;;;;;;;;28.96;36.27;100259.00;5087626;28;1124;-34
2023/06/28 07:27:07;;;;;;;;;;;;;;;28.93;35.63;100262.09;5076616;28;969;-38
2023/06/28 07:29:33;;;;;;;;;;;;;;;28.13;34.56;100261.66;5094613;28;1527;-35
2023/06/28 07:31:58;;;;;;;;;;;;;;;28.71;33.73;100265.00;5076708;28;1170;-38
2023/06/28 07:34:24;;;;;;;;;;;;;;;28.85;34.57;100253.16;5074327;28;1190;-37
2023/06/28 07:36:49;;;;;;;;;;;;;;;28.81;34.14;100260.00;5074436;28;1217;-41
2023/06/28 07:39:15;;;;;;;;;;;;;;;28.79;33.95;100245.00;5077336;28;1913;-39
2023/06/28 07:41:40;;;;;;;;;;;;;;;28.67;34.25;100251.03;5075130;28;1107;-39
2023/06/28 07:44:06;;;;;;;;;;;;;;;28.76;34.33;100265.19;5075340;28;1167;-39
2023/06/28 07:46:31;;;;;;;;;;;;;;;28.82;35.26;100260.84;5058108;28;1202;-36
2023/06/28 07:48:59;;;;;;;;;;;;;;;28.85;35.34;100250.44;5077632;28;1155;-35
2023/06/28 07:51:25;;;;;;;;;;;;;;;28.88;35.32;100246.47;5091345;28;1072;-37
2023/06/28 07:53:51;;;;;;;;;;;;;;;29.04;33.86;100242.56;5078281;28;1150;-38
2023/06/28 07:56:16;;;;;;;;;;;;;;;28.80;34.98;100250.22;5096784;28;1023;-38
2023/06/28 07:58:42;;;;;;;;;;;;;;;28.89;35.30;100245.44;5087794;28;1987;-39
2023/06/28 08:01:07;;;;;;;;;;;;;;;28.98;35.44;100237.16;5078587;28;1081;-36
2023/06/28 08:03:33;;;;;;;;;;;;;;;29.05;35.22;100235.25;5080750;28;1201;-35
2023/06/28 08:05:58;;;;;;;;;;;;;;;28.99;34.62;100231.53;5092641;28;1102;-32
2023/06/28 08:08:24;;;;;;;;;;;;;;;28.98;35.01;100229.84;5077866;28;1185;-35
2023/06/28 08:10:49;;;;;;;;;;;;;;;28.83;35.64;100241.69;5079019;28;1146;-34
2023/06/28 08:13:15;;;;;;;;;;;;;;;28.91;36.31;100240.63;5084810;28;1245;-44
2023/06/28 08:15:42;;;;;;;;;;;;;;;28.89;35.74;100237.31;5098332;28;909;-25
2023/06/28 08:18:09;;;;;;;;;;;;;;;28.91;36.84;100229.00;5083541;28;1977;-23
2023/06/28 08:20:35;;;;;;;;;;;;;;;29.00;36.21;100224.22;5078616;28;1038;-24
2023/06/28 08:23:01;;;;;;;;;;;;;;;28.64;37.72;100215.44;5092149;28;1058;-24
2023/06/28 08:25:26;;;;;;;;;;;;;;;28.76;37.99;100223.78;5078094;28;1043;-25
2023/06/28 08:27:52;;;;;;;;;;;;;;;29.02;36.70;100224.84;5083335;28;968;-23
2023/06/28 08:30:17;;;;;;;;;;;;;;;29.01;35.61;100228.59;5098786;28;1086;-26
2023/06/28 08:32:43;;;;;;;;;;;;;;;29.16;35.31;100223.78;5084795;28;1110;-25
2023/06/28 08:35:08;;;;;;;;;;;;;;;28.83;36.26;100225.44;5090679;28;1641;-23
2023/06/28 08:37:34;;;;;;;;;;;;;;;28.67;37.35;100217.72;5077292;28;1909;-25
2023/06/28 08:40:01;;;;;;;;;;;;;;;28.28;37.94;100218.25;5089122;28;853;-24
2023/06/28 08:42:27;;;;;;;;;;;;;;;28.08;38.37;100218.19;5091543;28;1043;-27
2023/06/28 08:44:53;;;;;;;;;;;;;;;28.04;38.19;100216.94;5079742;28;1027;-23
2023/06/28 08:47:18;;;;;;;;;;;;;;;27.92;38.63;100219.38;5066122;28;1146;-25
2023/06/28 08:49:44;;;;;;;;;;;;;;;27.96;38.25;100215.25;5060523;28;1137;-24
2023/06/28 08:52:10;;;;;;;;;;;;;;;27.96;38.22;100210.66;5079499;28;968;-24
2023/06/28 08:54:36;;;;;;;;;;;;;;;27.91;37.74;100225.81;5085523;28;1137;-24
2023/06/28 08:57:01;;;;;;;;;;;;;;;28.04;37.87;100217.78;5078664;28;1039;-22
2023/06/28 08:59:27;;;;;;;;;;;;;;;28.05;38.15;100215.88;5075153;28;1985;-24
2023/06/28 09:01:55;;;;;;;;;;;;;;;27.89;38.61;100219.78;5091090;28;1086;-25
2023/06/28 09:04:22;;;;;;;;;;;;;;;27.89;39.18;100209.81;5063701;28;1032;-24
2023/06/28 09:06:47;;;;;;;;;;;;;;;27.88;38.99;100218.94;5062637;28;1063;-26
2023/06/28 09:09:13;;;;;;;;;;;;;;;27.86;38.82;100215.63;5067870;28;1055;-23
2023/06/28 09:11:38;;;;;;;;;;;;;;;27.90;39.41;100213.31;5071356;28;1194;-24
2023/06/28 09:14:04;;;;;;;;;;;;;;;27.95;39.69;100217.09;5057107;28;1143;-25
2023/06/28 09:16:30;;;;;;;;;;;;;;;27.82;39.59;100223.28;5063004;28;1105;-28
2023/06/28 09:18:55;;;;;;;;;;;;;;;27.75;40.11;100207.03;5065986;28;1975;-22
2023/06/28 09:21:27;;;;;;;;;;;;;;;28.00;39.55;100202.97;5057012;28;1162;-25
2023/06/28 09:23:53;;;;;;;;;;;;;;;28.50;38.41;100203.75;5069967;28;1062;-25
2023/06/28 09:26:18;;;;;;;;;;;;;;;28.32;38.41;100210.56;5056143;28;1161;-25
2023/06/28 09:28:44;;;;;;;;;;;;;;;28.34;37.32;100197.72;5059512;28;1429;-23
2023/06/28 09:31:09;;;;;;;;;;;;;;;28.43;37.39;100198.31;5057158;28;1264;-22
2023/06/28 09:33:35;;;;;;;;;;;;;;;28.43;36.77;100191.06;5057141;28;1336;-24
2023/06/28 09:36:01;;;;;;;;;;;;;;;28.71;34.96;100186.53;5057225;28;1201;-26
2023/06/28 09:38:26;;;;;;;;;;;;;;;28.48;36.73;100187.72;5057515;28;1971;-23
2023/06/28 09:41:01;;;;;;;;;;;;;;;28.64;35.90;100194.63;5059011;28;1217;-23
2023/06/28 09:43:33;;;;;;;;;;;;;;;28.59;36.91;100180.88;5062100;28;1182;-25
2023/06/28 09:46:15;;;;;;;;;;;;;;;28.83;35.58;100187.53;5070091;28;969;-24
2023/06/28 09:48:41;;;;;;;;;;;;;;;28.79;36.90;100180.91;5057425;28;1095;-25
2023/06/28 09:51:07;;;;;;;;;;;;;;;28.94;36.98;100177.13;5069121;28;1118;-28
2023/06/28 09:53:33;;;;;;;;;;;;;;;28.66;37.53;100168.16;5056953;28;1301;-23
2023/06/28 09:55:58;;;;;;;;;;;;;;;28.71;36.69;100176.50;5056753;28;1078;-25
2023/06/28 09:58:24;;;;;;;;;;;;;;;28.77;36.57;100176.72;5069015;28;1902;-23
2023/06/28 10:00:49;;;;;;;;;;;;;;;28.75;36.39;100181.50;5074938;28;1249;-24
2023/06/28 10:03:18;;;;;;;;;;;;;;;28.90;35.76;100182.13;5075060;28;1268;-26
2023/06/28 10:05:44;;;;;;;;;;;;;;;29.08;36.12;100177.97;5058935;28;1040;-24
2023/06/28 10:08:10;;;;;;;;;;;;;;;29.02;36.50;100176.09;5092345;28;1206;-22
2023/06/28 10:10:36;;;;;;;;;;;;;;;29.00;36.42;100170.06;5079439;28;1256;-26
2023/06/28 10:13:02;;;;;;;;;;;;;;;28.99;37.02;100169.25;5076426;28;1067;-23
2023/06/28 10:15:27;;;;;;;;;;;;;;;28.98;36.17;100172.97;5088637;28;1302;-22
2023/06/28 10:17:53;;;;;;;;;;;;;;;29.05;36.54;100167.56;5078135;28;1902;-24
2023/06/28 10:20:18;;;;;;;;;;;;;;;28.97;36.03;100152.38;5079810;28;1528;-23
2023/06/28 10:22:44;;;;;;;;;;;;;;;28.99;35.76;100163.00;5075435;28;1641;-25
2023/06/28 10:25:10;;;;;;;;;;;;;;;28.61;36.36;100170.69;5068870;28;1063;-23
2023/06/28 10:27:36;;;;;;;;;;;;;;;28.57;36.80;100170.28;5085340;28;1077;-23
2023/06/28 10:30:02;;;;;;;;;;;;;;;28.81;36.48;100169.84;5082758;28;1062;-24
2023/06/28 10:32:28;;;;;;;;;;;;;;;28.53;37.09;100168.19;5096029;28;1015;-23
2023/06/28 10:34:53;;;;;;;;;;;;;;;28.57;36.50;100159.44;5080832;28;1114;-25
2023/06/28 10:37:22;;;;;;;;;;;;;;;28.66;36.44;100165.47;5077953;28;1977;-24
2023/06/28 10:39:49;;;;;;;;;;;;;;;28.89;35.77;100158.81;5086524;28;1206;-26
2023/06/28 10:42:14;;;;;;;;;;;;;;;28.83;36.12;100154.22;5085710;28;1145;-24
2023/06/28 10:44:52;;;;;;;;;;;;;;;28.61;36.57;100162.56;5093518;28;1218;-25
2023/06/28 10:47:18;;;;;;;;;;;;;;;28.84;36.43;100161.31;5075060;28;1177;-23
2023/06/28 10:49:57;;;;;;;;;;;;;;;28.85;36.40;100152.97;5076060;28;1063;-24
2023/06/28 10:52:23;;;;;;;;;;;;;;;28.71;37.12;100154.84;5077914;28;1403;-21
2023/06/28 10:54:48;;;;;;;;;;;;;;;29.02;36.81;100154.44;5057553;28;1437;-23
2023/06/28 10:57:14;;;;;;;;;;;;;;;29.00;36.58;100156.53;5076250;28;999;-25
2023/06/28 10:59:40;;;;;;;;;;;;;;;28.83;37.33;100144.22;5078277;28;1910;-24
2023/06/28 11:02:06;;;;;;;;;;;;;;;28.65;34.42;100146.72;5076837;28;1265;-25
2023/06/28 11:04:31;;;;;;;;;;;;;;;28.62;34.99;100155.28;5088955;28;1217;-24
2023/06/28 11:07:02;;;;;;;;;;;;;;;28.68;36.17;100149.03;5088735;28;1381;-25
2023/06/28 11:09:28;;;;;;;;;;;;;;;28.73;36.40;100144.66;5095467;28;1182;-27
2023/06/28 11:11:57;;;;;;;;;;;;;;;28.58;36.38;100141.31;5095246;28;1326;-23
2023/06/28 11:14:31;;;;;;;;;;;;;;;28.78;36.60;100151.34;5082877;28;1431;-26
2023/06/28 11:17:03;;;;;;;;;;;;;;;28.89;36.02;100139.88;5082402;28;1202;-22
2023/06/28 11:19:29;;;;;;;;;;;;;;;28.87;35.80;100146.53;5087083;28;1970;-22
2023/06/28 11:22:03;;;;;;;;;;;;;;;28.71;36.47;100141.31;5083035;28;1197;-26
2023/06/28 11:24:28;;;;;;;;;;;;;;;28.72;37.12;100139.44;5092341;28;1230;-25
2023/06/28 11:26:54;;;;;;;;;;;;;;;28.81;36.68;100132.78;5095632;28;1439;-26
2023/06/28 11:29:19;;;;;;;;;;;;;;;29.13;36.06;100145.66;5080918;28;1593;-26
2023/06/28 11:31:48;;;;;;;;;;;;;;;29.33;34.72;100159.16;5091670;28;1130;-26
2023/06/28 11:34:14;;;;;;;;;;;;;;;29.21;34.32;100150.06;5078491;28;1067;-27
2023/06/28 11:36:40;;;;;;;;;;;;;;;29.14;35.75;100155.47;5079568;28;987;-27
2023/06/28 11:39:06;;;;;;;;;;;;;;;29.04;35.96;100152.38;5077301;28;1974;-29
2023/06/28 11:41:35;;;;;;;;;;;;;;;29.28;35.38;100155.47;5091125;28;1281;-26
2023/06/28 11:44:04;;;;;;;;;;;;;;;29.32;34.87;100153.97;5090083;28;1226;-28
2023/06/28 11:46:31;;;;;;;;;;;;;;;29.12;35.31;100159.44;5091397;28;1147;-23
2023/06/28 11:48:57;;;;;;;;;;;;;;;29.15;35.79;100161.72;5079224;28;1076;-27
2023/06/28 11:51:23;;;;;;;;;;;;;;;28.96;36.08;100156.91;5094213;28;1245;-26
2023/06/28 11:53:51;;;;;;;;;;;;;;;29.05;36.73;100165.69;5072633;28;1313;-26
2023/06/28 11:56:17;;;;;;;;;;;;;;;29.17;36.62;100165.03;5089608;28;1202;-31
2023/06/28 11:58:42;;;;;;;;;;;;;;;29.07;35.78;100168.19;5087103;28;1909;-28
2023/06/28 12:01:18;;;;;;;;;;;;;;;29.16;35.70;100168.81;5089608;28;1323;-28
2023/06/28 12:03:43;;;;;;;;;;;;;;;28.83;36.42;100190.25;5088612;28;1210;-28
2023/06/28 12:06:12;;;;;;;;;;;;;;;28.60;36.34;100199.63;5092098;28;1206;-28
2023/06/28 12:08:38;;;;;;;;;;;;;;;28.62;35.72;100199.41;5086973;28;1240;-27
2023/06/28 12:11:13;;;;;;;;;;;;;;;28.80;35.85;100209.63;5093768;28;1418;-32
2023/06/28 12:13:39;;;;;;;;;;;;;;;28.79;35.97;100216.09;5090382;28;1171;-33
2023/06/28 12:16:11;;;;;;;;;;;;;;;28.77;35.96;100209.19;5098392;28;1193;-29
2023/06/28 12:18:56;;;;;;;;;;;;;;;28.41;36.09;100222.88;5089631;28;1894;-34
2023/06/28 12:21:23;;;;;;;;;;;;;;;28.50;38.90;100226.25;5077413;28;1077;-29
2023/06/28 12:23:48;;;;;;;;;;;;;;;28.91;38.19;100243.34;5087952;28;1058;-26
2023/06/28 12:26:14;;;;;;;;;;;;;;;28.88;39.25;100237.53;5098834;28;1081;-33
2023/06/28 12:28:39;;;;;;;;;;;;;;;29.16;40.45;100239.22;5085210;28;1300;-30
2023/06/28 12:31:05;;;;;;;;;;;;;;;29.44;40.29;100238.16;5060578;28;1186;-30
2023/06/28 12:33:34;;;;;;;;;;;;;;;29.02;40.68;100233.81;5065403;28;1392;-30
2023/06/28 12:36:00;;;;;;;;;;;;;;;28.56;40.24;100236.22;5090982;28;1158;-30
2023/06/28 12:38:25;;;;;;;;;;;;;;;28.71;37.86;100229.81;5080062;28;1977;-30
2023/06/28 12:40:51;;;;;;;;;;;;;;;28.55;39.43;100239.97;5097243;28;836;-30
2023/06/28 12:43:21;;;;;;;;;;;;;;;28.54;38.36;100235.63;5083575;28;1101;-31